To NAV CANADA Home Page Login to a new session Search on AWWS site Feedback and Comments Disclaimer Vers la page française équivalente Tips FAQ What's new on the site To the Forecasts and Observations / NOTAM section To "File a Flight Plan" website Publications and other links Update of the User's profile FIC Telephone Numbers My Weather Data Folder Route Weather Data Regional Weather Data Local Weather Data To the Forecasts and Observations / NOTAM section
Request Generated 02/10/2016 at 08:30:52 UTC . Weather information available at that time is displayed.

METAR/TAF

LONDON/ON    

METAR CYXU 100800Z 28011G18KT 4SM -SHSN SCT009 OVC013 M05/M07 A2958
RMK SF3SC5 CVCTV CLD EMBD SLP031=
METAR CYXU 100700Z 27012G19KT 5SM -SHSN FEW009 BKN014 OVC024 M04/M06
A2957 RMK SF2SC4SC2 CVCTV CLD EMBD SLP028=
METAR CYXU 100600Z 27017G22KT 5SM -SHSN SCT009 OVC014 M04/M05 A2957
RMK SF3SC5 CVCTV CLD EMBD SLP026=

TAF CYXU 100540Z 1006/1106 28012G22KT 11/2SM -SHSN OVC006 TEMPO
1006/1008 5SM -SN OVC010
FM100800 28015KT 2SM -SHSN OVC008 TEMPO 1008/1012 6SM -SHSN
OVC012
BECMG 1014/1016 27015G25KT
FM101700 27016G26KT 21/2SM -SHSN BLSN SCT008 OVC015
FM110000 29015G25KT 4SM -SHSN BLSN SCT010 BKN030
RMK NXT FCST BY 101200Z=
Your time UTC time
Weather data provided by Environment Canada and NAV CANADA